sensor_id;sensor_type;location;lat;lon;timestamp;pressure;altitude;pressure_sealevel;temperature;humidity
64340;BME280;63709;53.258;-8.814;2023-08-06T00:02:01;102002.16;;;17.63;100.00
64340;BME280;63709;53.258;-8.814;2023-08-06T00:04:26;101995.34;;;17.80;100.00
64340;BME280;63709;53.258;-8.814;2023-08-06T00:06:51;101995.97;;;17.73;100.00
64340;BME280;63709;53.258;-8.814;2023-08-06T00:09:24;102002.75;;;17.67;100.00
64340;BME280;63709;53.258;-8.814;2023-08-06T00:11:50;102005.03;;;17.72;100.00
64340;BME280;63709;53.258;-8.814;2023-08-06T00:14:15;101999.31;;;17.76;100.00
64340;BME280;63709;53.258;-8.814;2023-08-06T00:16:45;101994.75;;;17.77;100.00
64340;BME280;63709;53.258;-8.814;2023-08-06T00:19:12;101992.53;;;17.71;100.00
64340;BME280;63709;53.258;-8.814;2023-08-06T00:21:39;101993.06;;;17.64;100.00
64340;BME280;63709;53.258;-8.814;2023-08-06T00:24:04;101996.50;;;17.66;100.00
64340;BME280;63709;53.258;-8.814;2023-08-06T00:26:30;101993.66;;;17.68;100.00
64340;BME280;63709;53.258;-8.814;2023-08-06T00:28:56;101988.53;;;17.65;100.00
64340;BME280;63709;53.258;-8.814;2023-08-06T00:31:22;101992.28;;;17.74;100.00
64340;BME280;63709;53.258;-8.814;2023-08-06T00:33:48;101987.13;;;17.71;100.00
64340;BME280;63709;53.258;-8.814;2023-08-06T00:36:15;101987.41;;;17.67;100.00
64340;BME280;63709;53.258;-8.814;2023-08-06T00:38:41;101991.25;;;17.65;100.00
64340;BME280;63709;53.258;-8.814;2023-08-06T00:41:06;101995.38;;;17.69;100.00
64340;BME280;63709;53.258;-8.814;2023-08-06T00:43:31;101985.28;;;17.71;100.00
64340;BME280;63709;53.258;-8.814;2023-08-06T00:45:57;101999.38;;;17.75;100.00
64340;BME280;63709;53.258;-8.814;2023-08-06T00:48:22;101992.28;;;17.74;100.00
64340;BME280;63709;53.258;-8.814;2023-08-06T00:50:49;101986.88;;;17.74;100.00
64340;BME280;63709;53.258;-8.814;2023-08-06T00:53:14;102002.22;;;17.73;100.00
64340;BME280;63709;53.258;-8.814;2023-08-06T00:55:40;101991.69;;;17.70;100.00
64340;BME280;63709;53.258;-8.814;2023-08-06T00:58:07;101999.63;;;17.72;100.00
64340;BME280;63709;53.258;-8.814;2023-08-06T01:00:32;101999.38;;;17.75;100.00
64340;BME280;63709;53.258;-8.814;2023-08-06T01:02:59;102001.13;;;17.76;100.00
64340;BME280;63709;53.258;-8.814;2023-08-06T01:05:25;102007.47;;;17.75;100.00
64340;BME280;63709;53.258;-8.814;2023-08-06T01:10:54;102002.31;;;17.83;100.00
64340;BME280;63709;53.258;-8.814;2023-08-06T01:13:32;102003.75;;;17.87;100.00
64340;BME280;63709;53.258;-8.814;2023-08-06T01:16:01;101999.81;;;17.91;100.00
64340;BME280;63709;53.258;-8.814;2023-08-06T01:18:27;102003.75;;;17.87;100.00
64340;BME280;63709;53.258;-8.814;2023-08-06T01:20:52;102010.91;;;17.98;100.00
64340;BME280;63709;53.258;-8.814;2023-08-06T01:23:18;102011.47;;;17.92;100.00
64340;BME280;63709;53.258;-8.814;2023-08-06T01:28:22;102013.50;;;17.99;100.00
64340;BME280;63709;53.258;-8.814;2023-08-06T01:30:49;102022.72;;;17.97;100.00
64340;BME280;63709;53.258;-8.814;2023-08-06T01:33:19;102020.34;;;18.03;100.00
64340;BME280;63709;53.258;-8.814;2023-08-06T01:35:44;102019.50;;;18.03;100.00
64340;BME280;63709;53.258;-8.814;2023-08-06T01:38:11;102016.78;;;18.03;100.00
64340;BME280;63709;53.258;-8.814;2023-08-06T01:40:38;102015.13;;;18.11;100.00
64340;BME280;63709;53.258;-8.814;2023-08-06T01:43:03;102019.00;;;18.19;100.00
64340;BME280;63709;53.258;-8.814;2023-08-06T01:45:30;102026.50;;;18.15;100.00
64340;BME280;63709;53.258;-8.814;2023-08-06T01:47:56;102028.81;;;18.20;100.00
64340;BME280;63709;53.258;-8.814;2023-08-06T01:50:22;102022.44;;;18.21;100.00
64340;BME280;63709;53.258;-8.814;2023-08-06T01:52:47;102028.28;;;18.26;100.00
64340;BME280;63709;53.258;-8.814;2023-08-06T01:55:13;102023.31;;;18.31;100.00
64340;BME280;63709;53.258;-8.814;2023-08-06T01:57:38;102027.59;;;18.33;100.00
64340;BME280;63709;53.258;-8.814;2023-08-06T02:00:04;102021.59;;;18.30;100.00
64340;BME280;63709;53.258;-8.814;2023-08-06T02:02:29;102005.97;;;18.33;100.00
64340;BME280;63709;53.258;-8.814;2023-08-06T02:04:55;102012.22;;;18.34;100.00
64340;BME280;63709;53.258;-8.814;2023-08-06T02:07:21;102015.38;;;18.39;100.00
64340;BME280;63709;53.258;-8.814;2023-08-06T02:09:47;102012.66;;;18.39;100.00
64340;BME280;63709;53.258;-8.814;2023-08-06T02:12:12;102012.53;;;18.41;100.00
64340;BME280;63709;53.258;-8.814;2023-08-06T02:14:38;102015.25;;;18.41;100.00
64340;BME280;63709;53.258;-8.814;2023-08-06T02:17:03;102006.13;;;18.42;100.00
64340;BME280;63709;53.258;-8.814;2023-08-06T02:19:30;102007.97;;;18.41;100.00
64340;BME280;63709;53.258;-8.814;2023-08-06T02:21:55;102006.13;;;18.42;100.00
64340;BME280;63709;53.258;-8.814;2023-08-06T02:24:22;102009.69;;;18.42;100.00
64340;BME280;63709;53.258;-8.814;2023-08-06T02:26:48;102002.72;;;18.40;100.00
64340;BME280;63709;53.258;-8.814;2023-08-06T02:29:17;102003.84;;;18.37;100.00
64340;BME280;63709;53.258;-8.814;2023-08-06T02:31:42;102003.84;;;18.37;100.00
64340;BME280;63709;53.258;-8.814;2023-08-06T02:34:10;102001.56;;;18.42;100.00
64340;BME280;63709;53.258;-8.814;2023-08-06T02:36:36;102002.44;;;18.43;100.00
64340;BME280;63709;53.258;-8.814;2023-08-06T02:39:03;102003.31;;;18.43;100.00
64340;BME280;63709;53.258;-8.814;2023-08-06T02:41:29;102002.56;;;18.41;100.00
64340;BME280;63709;53.258;-8.814;2023-08-06T02:43:55;101997.31;;;18.40;100.00
64340;BME280;63709;53.258;-8.814;2023-08-06T02:46:21;101999.72;;;18.43;100.00
64340;BME280;63709;53.258;-8.814;2023-08-06T02:48:47;102005.13;;;18.43;100.00
64340;BME280;63709;53.258;-8.814;2023-08-06T02:51:14;102007.41;;;18.37;100.00
64340;BME280;63709;53.258;-8.814;2023-08-06T02:53:41;101999.28;;;18.37;100.00
64340;BME280;63709;53.258;-8.814;2023-08-06T02:56:06;101998.44;;;18.37;100.00
64340;BME280;63709;53.258;-8.814;2023-08-06T02:58:33;102000.56;;;18.33;100.00
64340;BME280;63709;53.258;-8.814;2023-08-06T03:01:04;101996.16;;;18.42;100.00
64340;BME280;63709;53.258;-8.814;2023-08-06T03:03:33;101995.75;;;18.37;100.00
64340;BME280;63709;53.258;-8.814;2023-08-06T03:05:58;101996.03;;;18.44;100.00
64340;BME280;63709;53.258;-8.814;2023-08-06T03:08:24;101992.75;;;18.40;100.00
64340;BME280;63709;53.258;-8.814;2023-08-06T03:10:51;101998.88;;;18.42;100.00
64340;BME280;63709;53.258;-8.814;2023-08-06T03:13:17;101992.75;;;18.40;100.00
64340;BME280;63709;53.258;-8.814;2023-08-06T03:16:05;101995.03;;;18.45;100.00
64340;BME280;63709;53.258;-8.814;2023-08-06T03:18:31;101991.75;;;18.41;100.00
64340;BME280;63709;53.258;-8.814;2023-08-06T03:20:58;101985.34;;;18.42;100.00
64340;BME280;63709;53.258;-8.814;2023-08-06T03:23:24;101997.31;;;18.40;100.00
64340;BME280;63709;53.258;-8.814;2023-08-06T03:25:49;101994.91;;;18.46;100.00
64340;BME280;63709;53.258;-8.814;2023-08-06T03:28:14;101998.28;;;18.38;100.00
64340;BME280;63709;53.258;-8.814;2023-08-06T03:30:41;102001.16;;;18.37;100.00
64340;BME280;63709;53.258;-8.814;2023-08-06T03:33:06;102002.72;;;18.40;100.00
64340;BME280;63709;53.258;-8.814;2023-08-06T03:35:32;101995.59;;;18.38;100.00
64340;BME280;63709;53.258;-8.814;2023-08-06T03:37:57;101992.88;;;18.38;100.00
64340;BME280;63709;53.258;-8.814;2023-08-06T03:40:24;101987.09;;;18.43;100.00
64340;BME280;63709;53.258;-8.814;2023-08-06T03:42:49;101992.03;;;18.38;100.00
64340;BME280;63709;53.258;-8.814;2023-08-06T03:45:15;101991.75;;;18.41;100.00
64340;BME280;63709;53.258;-8.814;2023-08-06T03:47:42;101988.22;;;18.41;100.00
64340;BME280;63709;53.258;-8.814;2023-08-06T03:50:08;101991.59;;;18.33;100.00
64340;BME280;63709;53.258;-8.814;2023-08-06T03:52:34;101991.34;;;18.36;100.00
64340;BME280;63709;53.258;-8.814;2023-08-06T03:55:00;101984.91;;;18.37;100.00
64340;BME280;63709;53.258;-8.814;2023-08-06T03:57:25;101975.66;;;18.30;100.00
64340;BME280;63709;53.258;-8.814;2023-08-06T03:59:52;101982.38;;;18.45;100.00
64340;BME280;63709;53.258;-8.814;2023-08-06T04:02:17;101989.47;;;18.36;100.00
64340;BME280;63709;53.258;-8.814;2023-08-06T04:04:44;101986.03;;;18.34;100.00
64340;BME280;63709;53.258;-8.814;2023-08-06T04:07:10;101985.19;;;18.34;100.00
64340;BME280;63709;53.258;-8.814;2023-08-06T04:09:59;101984.75;;;18.29;100.00
64340;BME280;63709;53.258;-8.814;2023-08-06T04:12:23;101986.59;;;18.28;100.00
64340;BME280;63709;53.258;-8.814;2023-08-06T04:14:49;101994.84;;;18.27;100.00
64340;BME280;63709;53.258;-8.814;2023-08-06T04:17:17;101990.28;;;18.27;100.00
64340;BME280;63709;53.258;-8.814;2023-08-06T04:19:46;101994.25;;;18.23;100.00
64340;BME280;63709;53.258;-8.814;2023-08-06T04:22:13;101993.41;;;18.23;100.00
64340;BME280;63709;53.258;-8.814;2023-08-06T04:24:40;102002.34;;;18.23;100.00
64340;BME280;63709;53.258;-8.814;2023-08-06T04:27:07;102000.66;;;18.22;100.00
64340;BME280;63709;53.258;-8.814;2023-08-06T04:29:33;101996.69;;;18.26;100.00
64340;BME280;63709;53.258;-8.814;2023-08-06T04:31:58;101995.41;;;18.21;100.00
64340;BME280;63709;53.258;-8.814;2023-08-06T04:34:24;101992.97;;;18.18;100.00
64340;BME280;63709;53.258;-8.814;2023-08-06T04:36:49;102002.78;;;18.19;100.00
64340;BME280;63709;53.258;-8.814;2023-08-06T04:39:21;101997.63;;;18.16;100.00
64340;BME280;63709;53.258;-8.814;2023-08-06T04:44:15;102016.03;;;18.22;100.00
64340;BME280;63709;53.258;-8.814;2023-08-06T04:46:40;102014.44;;;18.19;100.00
64340;BME280;63709;53.258;-8.814;2023-08-06T04:49:06;102019.84;;;18.19;100.00
64340;BME280;63709;53.258;-8.814;2023-08-06T04:51:31;102018.00;;;18.20;100.00
64340;BME280;63709;53.258;-8.814;2023-08-06T04:53:57;102020.16;;;18.26;100.00
64340;BME280;63709;53.258;-8.814;2023-08-06T04:56:29;102022.28;;;18.22;100.00
64340;BME280;63709;53.258;-8.814;2023-08-06T04:58:54;102022.22;;;18.12;100.00
64340;BME280;63709;53.258;-8.814;2023-08-06T05:01:19;102020.94;;;18.07;100.00
64340;BME280;63709;53.258;-8.814;2023-08-06T05:03:47;102029.44;;;18.02;100.00
64340;BME280;63709;53.258;-8.814;2023-08-06T05:06:19;102040.34;;;17.91;100.00
64340;BME280;63709;53.258;-8.814;2023-08-06T05:08:44;102035.78;;;17.92;100.00
64340;BME280;63709;53.258;-8.814;2023-08-06T05:11:10;102037.91;;;17.88;100.00
64340;BME280;63709;53.258;-8.814;2023-08-06T05:13:37;102055.94;;;17.87;100.00
64340;BME280;63709;53.258;-8.814;2023-08-06T05:16:05;102041.44;;;17.88;100.00
64340;BME280;63709;53.258;-8.814;2023-08-06T05:18:31;102044.41;;;17.85;100.00
64340;BME280;63709;53.258;-8.814;2023-08-06T05:20:56;102046.00;;;17.88;100.00
64340;BME280;63709;53.258;-8.814;2023-08-06T05:23:22;102046.69;;;17.90;100.00
64340;BME280;63709;53.258;-8.814;2023-08-06T05:25:49;102052.38;;;18.08;100.00
64340;BME280;63709;53.258;-8.814;2023-08-06T05:28:14;102053.47;;;18.05;100.00
64340;BME280;63709;53.258;-8.814;2023-08-06T05:30:40;102045.50;;;18.04;100.00
64340;BME280;63709;53.258;-8.814;2023-08-06T05:33:05;102046.44;;;17.93;100.00
64340;BME280;63709;53.258;-8.814;2023-08-06T05:35:31;102052.44;;;17.97;100.00
64340;BME280;63709;53.258;-8.814;2023-08-06T05:37:56;102059.81;;;17.95;100.00
64340;BME280;63709;53.258;-8.814;2023-08-06T05:40:23;102059.53;;;17.98;100.00
64340;BME280;63709;53.258;-8.814;2023-08-06T05:42:51;102058.69;;;17.97;100.00
64340;BME280;63709;53.258;-8.814;2023-08-06T05:47:45;102072.28;;;18.07;100.00
64340;BME280;63709;53.258;-8.814;2023-08-06T05:52:43;102074.50;;;18.02;100.00
64340;BME280;63709;53.258;-8.814;2023-08-06T05:55:08;102073.28;;;18.06;100.00
64340;BME280;63709;53.258;-8.814;2023-08-06T05:57:34;102077.53;;;18.08;100.00
64340;BME280;63709;53.258;-8.814;2023-08-06T05:59:59;102079.81;;;18.13;100.00
64340;BME280;63709;53.258;-8.814;2023-08-06T06:02:26;102077.00;;;18.14;100.00
64340;BME280;63709;53.258;-8.814;2023-08-06T06:04:51;102067.38;;;18.22;100.00
64340;BME280;63709;53.258;-8.814;2023-08-06T06:07:18;102072.03;;;18.20;100.00
64340;BME280;63709;53.258;-8.814;2023-08-06T06:12:17;102074.50;;;18.23;100.00
64340;BME280;63709;53.258;-8.814;2023-08-06T06:14:43;102070.41;;;18.28;100.00
64340;BME280;63709;53.258;-8.814;2023-08-06T06:17:08;102072.97;;;18.30;100.00
64340;BME280;63709;53.258;-8.814;2023-08-06T06:19:35;102080.06;;;18.31;100.00
64340;BME280;63709;53.258;-8.814;2023-08-06T06:22:00;102082.41;;;18.35;100.00
64340;BME280;63709;53.258;-8.814;2023-08-06T06:24:27;102079.53;;;18.37;100.00
64340;BME280;63709;53.258;-8.814;2023-08-06T06:26:53;102086.81;;;18.36;100.00
64340;BME280;63709;53.258;-8.814;2023-08-06T06:29:21;102088.25;;;18.41;100.00
64340;BME280;63709;53.258;-8.814;2023-08-06T06:31:47;102094.66;;;18.40;100.00
64340;BME280;63709;53.258;-8.814;2023-08-06T06:34:14;102094.81;;;18.48;100.00
64340;BME280;63709;53.258;-8.814;2023-08-06T06:36:40;102100.50;;;18.45;100.00
64340;BME280;63709;53.258;-8.814;2023-08-06T06:39:05;102106.81;;;18.55;100.00
64340;BME280;63709;53.258;-8.814;2023-08-06T06:41:32;102103.69;;;18.59;100.00
64340;BME280;63709;53.258;-8.814;2023-08-06T06:44:00;102103.38;;;18.74;100.00
64340;BME280;63709;53.258;-8.814;2023-08-06T06:46:26;102108.16;;;18.70;100.00
64340;BME280;63709;53.258;-8.814;2023-08-06T06:48:51;102110.34;;;18.76;100.00
64340;BME280;63709;53.258;-8.814;2023-08-06T06:51:18;102118.59;;;18.75;100.00
64340;BME280;63709;53.258;-8.814;2023-08-06T06:53:43;102120.63;;;18.82;100.00
64340;BME280;63709;53.258;-8.814;2023-08-06T06:56:11;102118.06;;;18.81;100.00
64340;BME280;63709;53.258;-8.814;2023-08-06T06:58:36;102110.38;;;18.86;100.00
64340;BME280;63709;53.258;-8.814;2023-08-06T07:01:05;102116.06;;;18.83;100.00
64340;BME280;63709;53.258;-8.814;2023-08-06T07:03:30;102120.38;;;18.95;100.00
64340;BME280;63709;53.258;-8.814;2023-08-06T07:05:59;102112.44;;;19.03;100.00
64340;BME280;63709;53.258;-8.814;2023-08-06T07:08:25;102115.28;;;19.12;100.00
64340;BME280;63709;53.258;-8.814;2023-08-06T07:10:50;102110.88;;;19.10;100.00
64340;BME280;63709;53.258;-8.814;2023-08-06T07:13:32;102110.44;;;19.15;100.00
64340;BME280;63709;53.258;-8.814;2023-08-06T07:15:58;102111.44;;;19.24;100.00
64340;BME280;63709;53.258;-8.814;2023-08-06T07:18:25;102109.78;;;19.32;100.00
64340;BME280;63709;53.258;-8.814;2023-08-06T07:20:51;102108.63;;;19.35;100.00
64340;BME280;63709;53.258;-8.814;2023-08-06T07:23:17;102120.34;;;19.36;100.00
64340;BME280;63709;53.258;-8.814;2023-08-06T07:25:42;102112.94;;;19.47;100.00
64340;BME280;63709;53.258;-8.814;2023-08-06T07:28:09;102123.34;;;19.52;100.00
64340;BME280;63709;53.258;-8.814;2023-08-06T07:30:38;102125.19;;;19.51;100.00
64340;BME280;63709;53.258;-8.814;2023-08-06T07:33:03;102123.19;;;19.53;100.00
64340;BME280;63709;53.258;-8.814;2023-08-06T07:35:29;102118.66;;;19.64;100.00
64340;BME280;63709;53.258;-8.814;2023-08-06T07:37:55;102122.06;;;19.75;100.00
64340;BME280;63709;53.258;-8.814;2023-08-06T07:40:21;102117.81;;;19.73;100.00
64340;BME280;63709;53.258;-8.814;2023-08-06T07:42:46;102114.50;;;19.98;100.00
64340;BME280;63709;53.258;-8.814;2023-08-06T07:45:12;102112.50;;;20.00;100.00
64340;BME280;63709;53.258;-8.814;2023-08-06T07:47:37;102120.75;;;20.18;100.00
64340;BME280;63709;53.258;-8.814;2023-08-06T07:50:02;102114.44;;;20.27;100.00
64340;BME280;63709;53.258;-8.814;2023-08-06T07:52:29;102112.56;;;20.28;100.00
64340;BME280;63709;53.258;-8.814;2023-08-06T07:54:54;102107.59;;;20.33;100.00
64340;BME280;63709;53.258;-8.814;2023-08-06T07:57:20;102111.41;;;20.40;100.00
64340;BME280;63709;53.258;-8.814;2023-08-06T07:59:47;102109.97;;;20.56;100.00
64340;BME280;63709;53.258;-8.814;2023-08-06T08:02:14;102116.41;;;20.54;100.00
64340;BME280;63709;53.258;-8.814;2023-08-06T08:04:41;102124.78;;;20.61;100.00
64340;BME280;63709;53.258;-8.814;2023-08-06T08:07:06;102121.94;;;20.63;100.00
64340;BME280;63709;53.258;-8.814;2023-08-06T08:12:00;102122.25;;;20.50;100.00
64340;BME280;63709;53.258;-8.814;2023-08-06T08:14:26;102128.38;;;20.42;100.00
64340;BME280;63709;53.258;-8.814;2023-08-06T08:16:51;102129.66;;;20.58;100.00
64340;BME280;63709;53.258;-8.814;2023-08-06T08:19:17;102129.97;;;20.54;100.00
64340;BME280;63709;53.258;-8.814;2023-08-06T08:21:42;102126.44;;;20.72;100.00
64340;BME280;63709;53.258;-8.814;2023-08-06T08:24:13;102120.34;;;20.70;100.00
64340;BME280;63709;53.258;-8.814;2023-08-06T08:26:47;102125.41;;;20.83;100.00
64340;BME280;63709;53.258;-8.814;2023-08-06T08:29:12;102128.97;;;20.83;100.00
64340;BME280;63709;53.258;-8.814;2023-08-06T08:31:38;102119.47;;;20.69;100.00
64340;BME280;63709;53.258;-8.814;2023-08-06T08:34:05;102126.88;;;20.77;100.00
64340;BME280;63709;53.258;-8.814;2023-08-06T08:36:32;102133.44;;;20.74;100.00
64340;BME280;63709;53.258;-8.814;2023-08-06T08:38:58;102127.47;;;20.71;100.00
64340;BME280;63709;53.258;-8.814;2023-08-06T08:41:24;102129.97;;;20.82;100.00
64340;BME280;63709;53.258;-8.814;2023-08-06T08:43:51;102128.38;;;20.89;100.00
64340;BME280;63709;53.258;-8.814;2023-08-06T08:46:19;102131.69;;;20.83;100.00
64340;BME280;63709;53.258;-8.814;2023-08-06T08:48:46;102125.66;;;20.89;100.00
64340;BME280;63709;53.258;-8.814;2023-08-06T08:51:13;102127.66;;;20.87;100.00
64340;BME280;63709;53.258;-8.814;2023-08-06T08:53:39;102130.69;;;20.84;100.00
64340;BME280;63709;53.258;-8.814;2023-08-06T08:56:07;102125.34;;;20.65;100.00
64340;BME280;63709;53.258;-8.814;2023-08-06T08:58:40;102126.75;;;20.69;100.00
64340;BME280;63709;53.258;-8.814;2023-08-06T09:01:12;102126.44;;;20.72;100.00
64340;BME280;63709;53.258;-8.814;2023-08-06T09:03:37;102128.59;;;20.68;100.00
64340;BME280;63709;53.258;-8.814;2023-08-06T09:08:36;102131.09;;;20.62;100.00
64340;BME280;63709;53.258;-8.814;2023-08-06T09:11:04;102127.72;;;20.77;100.00
64340;BME280;63709;53.258;-8.814;2023-08-06T09:13:31;102127.84;;;20.76;100.00
64340;BME280;63709;53.258;-8.814;2023-08-06T09:15:57;102121.19;;;20.70;100.00
64340;BME280;63709;53.258;-8.814;2023-08-06T09:18:26;102126.81;;;20.87;100.00
64340;BME280;63709;53.258;-8.814;2023-08-06T09:20:55;102130.25;;;20.89;100.00
64340;BME280;63709;53.258;-8.814;2023-08-06T09:23:26;102132.84;;;20.81;100.00
64340;BME280;63709;53.258;-8.814;2023-08-06T09:26:00;102131.66;;;20.93;100.00
64340;BME280;63709;53.258;-8.814;2023-08-06T09:28:37;102121.97;;;21.08;100.00
64340;BME280;63709;53.258;-8.814;2023-08-06T09:31:08;102123.25;;;21.14;100.00
64340;BME280;63709;53.258;-8.814;2023-08-06T09:33:35;102123.16;;;21.23;100.00
64340;BME280;63709;53.258;-8.814;2023-08-06T09:36:07;102133.34;;;21.21;100.00
64340;BME280;63709;53.258;-8.814;2023-08-06T09:38:37;102133.41;;;21.12;100.00
64340;BME280;63709;53.258;-8.814;2023-08-06T09:41:10;102134.81;;;21.16;100.00
64340;BME280;63709;53.258;-8.814;2023-08-06T09:43:43;102130.38;;;21.15;100.00
64340;BME280;63709;53.258;-8.814;2023-08-06T09:48:46;102123.84;;;21.35;100.00
64340;BME280;63709;53.258;-8.814;2023-08-06T09:51:12;102120.22;;;21.44;100.00
64340;BME280;63709;53.258;-8.814;2023-08-06T09:53:38;102130.56;;;21.31;100.00
64340;BME280;63709;53.258;-8.814;2023-08-06T09:56:05;102125.94;;;21.41;100.00
64340;BME280;63709;53.258;-8.814;2023-08-06T09:58:32;102133.44;;;21.30;100.00
64340;BME280;63709;53.258;-8.814;2023-08-06T10:00:59;102136.38;;;21.18;100.00
64340;BME280;63709;53.258;-8.814;2023-08-06T10:03:28;102153.31;;;21.02;100.00
64340;BME280;63709;53.258;-8.814;2023-08-06T10:05:55;102157.97;;;20.83;100.00
64340;BME280;63709;53.258;-8.814;2023-08-06T10:08:27;102169.97;;;20.80;100.00
64340;BME280;63709;53.258;-8.814;2023-08-06T10:10:52;102171.53;;;20.83;100.00
64340;BME280;63709;53.258;-8.814;2023-08-06T10:13:18;102171.91;;;20.70;100.00
64340;BME280;63709;53.258;-8.814;2023-08-06T10:15:45;102169.28;;;20.78;100.00
64340;BME280;63709;53.258;-8.814;2023-08-06T10:18:11;102165.34;;;20.63;100.00
64340;BME280;63709;53.258;-8.814;2023-08-06T10:20:38;102177.63;;;20.67;100.00
64340;BME280;63709;53.258;-8.814;2023-08-06T10:23:04;102171.91;;;20.70;100.00
64340;BME280;63709;53.258;-8.814;2023-08-06T10:25:33;102171.44;;;20.74;100.00
64340;BME280;63709;53.258;-8.814;2023-08-06T10:27:59;102163.66;;;20.89;100.00
64340;BME280;63709;53.258;-8.814;2023-08-06T10:30:26;102167.28;;;21.08;100.00
64340;BME280;63709;53.258;-8.814;2023-08-06T10:32:58;102164.66;;;21.16;100.00
64340;BME280;63709;53.258;-8.814;2023-08-06T10:38:10;102154.69;;;21.44;100.00
64340;BME280;63709;53.258;-8.814;2023-08-06T10:40:39;102157.59;;;21.50;100.00
64340;BME280;63709;53.258;-8.814;2023-08-06T10:43:11;102151.81;;;21.63;100.00
64340;BME280;63709;53.258;-8.814;2023-08-06T10:45:49;102155.59;;;21.53;100.00
64340;BME280;63709;53.258;-8.814;2023-08-06T10:48:37;102159.66;;;21.84;100.00
64340;BME280;63709;53.258;-8.814;2023-08-06T10:51:07;102153.19;;;22.03;100.00
64340;BME280;63709;53.258;-8.814;2023-08-06T10:53:35;102158.22;;;21.98;100.00
64340;BME280;63709;53.258;-8.814;2023-08-06T10:56:01;102161.13;;;21.96;100.00
64340;BME280;63709;53.258;-8.814;2023-08-06T10:58:35;102164.13;;;22.29;100.00
64340;BME280;63709;53.258;-8.814;2023-08-06T11:01:00;102166.59;;;22.40;100.00
64340;BME280;63709;53.258;-8.814;2023-08-06T11:03:27;102157.88;;;22.63;100.00
64340;BME280;63709;53.258;-8.814;2023-08-06T11:05:58;102153.31;;;22.98;100.00
64340;BME280;63709;53.258;-8.814;2023-08-06T11:08:35;102153.59;;;23.29;100.00
64340;BME280;63709;53.258;-8.814;2023-08-06T11:11:12;102151.03;;;23.27;100.00
64340;BME280;63709;53.258;-8.814;2023-08-06T11:13:39;102145.88;;;23.16;100.00
64340;BME280;63709;53.258;-8.814;2023-08-06T11:16:04;102153.00;;;23.01;100.00
64340;BME280;63709;53.258;-8.814;2023-08-06T11:18:32;102145.56;;;23.19;100.00
64340;BME280;63709;53.258;-8.814;2023-08-06T11:21:04;102152.50;;;23.13;100.00
64340;BME280;63709;53.258;-8.814;2023-08-06T11:23:29;102154.31;;;23.47;100.00
64340;BME280;63709;53.258;-8.814;2023-08-06T11:25:55;102154.56;;;23.86;100.00
64340;BME280;63709;53.258;-8.814;2023-08-06T11:28:27;102144.69;;;24.18;100.00
64340;BME280;63709;53.258;-8.814;2023-08-06T11:30:54;102147.72;;;24.39;100.00
64340;BME280;63709;53.258;-8.814;2023-08-06T11:33:23;102141.09;;;24.90;100.00
64340;BME280;63709;53.258;-8.814;2023-08-06T11:35:53;102154.47;;;24.68;100.00
64340;BME280;63709;53.258;-8.814;2023-08-06T11:38:20;102154.38;;;24.37;100.00
64340;BME280;63709;53.258;-8.814;2023-08-06T11:40:50;102154.38;;;24.12;100.00
64340;BME280;63709;53.258;-8.814;2023-08-06T11:43:15;102152.34;;;24.06;100.00
64340;BME280;63709;53.258;-8.814;2023-08-06T11:45:42;102152.69;;;24.44;100.00
64340;BME280;63709;53.258;-8.814;2023-08-06T11:48:08;102145.25;;;24.77;100.00
64340;BME280;63709;53.258;-8.814;2023-08-06T11:50:37;102131.38;;;25.26;100.00
64340;BME280;63709;53.258;-8.814;2023-08-06T11:53:06;102126.56;;;25.59;100.00
64340;BME280;63709;53.258;-8.814;2023-08-06T11:55:33;102141.06;;;26.06;100.00
64340;BME280;63709;53.258;-8.814;2023-08-06T11:58:04;102141.88;;;26.29;100.00
64340;BME280;63709;53.258;-8.814;2023-08-06T12:00:32;102141.63;;;26.54;99.84
64340;BME280;63709;53.258;-8.814;2023-08-06T12:03:07;102144.28;;;26.62;95.83
64340;BME280;63709;53.258;-8.814;2023-08-06T12:05:32;102140.41;;;26.71;95.25
64340;BME280;63709;53.258;-8.814;2023-08-06T12:08:01;102137.53;;;27.09;100.00
64340;BME280;63709;53.258;-8.814;2023-08-06T12:10:34;102148.31;;;27.47;97.21
64340;BME280;63709;53.258;-8.814;2023-08-06T12:13:01;102138.47;;;27.53;78.07
64340;BME280;63709;53.258;-8.814;2023-08-06T12:15:34;102140.00;;;27.98;81.78
64340;BME280;63709;53.258;-8.814;2023-08-06T12:18:00;102146.22;;;27.85;82.97
64340;BME280;63709;53.258;-8.814;2023-08-06T12:20:27;102151.56;;;27.36;76.17
64340;BME280;63709;53.258;-8.814;2023-08-06T12:22:54;102149.00;;;27.13;79.82
64340;BME280;63709;53.258;-8.814;2023-08-06T12:25:21;102160.50;;;27.08;83.01
64340;BME280;63709;53.258;-8.814;2023-08-06T12:27:46;102149.19;;;26.82;70.64
64340;BME280;63709;53.258;-8.814;2023-08-06T12:30:14;102152.22;;;26.72;81.33
64340;BME280;63709;53.258;-8.814;2023-08-06T12:32:39;102145.78;;;26.50;76.58
64340;BME280;63709;53.258;-8.814;2023-08-06T12:35:05;102140.09;;;26.37;79.89
64340;BME280;63709;53.258;-8.814;2023-08-06T12:37:32;102142.63;;;26.23;79.64
64340;BME280;63709;53.258;-8.814;2023-08-06T12:40:01;102149.84;;;25.78;84.74
64340;BME280;63709;53.258;-8.814;2023-08-06T12:42:27;102140.66;;;25.17;87.66
64340;BME280;63709;53.258;-8.814;2023-08-06T12:44:54;102145.13;;;25.10;94.76
64340;BME280;63709;53.258;-8.814;2023-08-06T12:47:20;102146.13;;;25.17;94.81
64340;BME280;63709;53.258;-8.814;2023-08-06T12:49:47;102150.69;;;24.85;90.21
64340;BME280;63709;53.258;-8.814;2023-08-06T12:52:12;102161.53;;;24.46;88.76
64340;BME280;63709;53.258;-8.814;2023-08-06T12:54:40;102155.53;;;24.51;91.36
64340;BME280;63709;53.258;-8.814;2023-08-06T12:57:07;102147.25;;;24.11;98.98